Time;durP1;ratioP1;P1;durP2;ratioP2;P2;SDS_P1;SDS_P2;PMS_P1;PMS_P2;Temp;Humidity;BMP_temperature;BMP_pressure;BME280_temperature;BME280_humidity;BME280_pressure;Samples;Min_cycle;Max_cycle;Signal;HPM_P1;HPM_P2
2023/01/23 00:01:17;;;;;;;2.30;2.10;;;;;;;;;;5099640;28;20247;-61
2023/01/23 00:03:45;;;;;;;2.47;2.28;;;;;;;;;;5085571;28;20240;-62
2023/01/23 00:06:15;;;;;;;2.30;2.10;;;;;;;;;;5079410;28;20212;-62
2023/01/23 00:08:43;;;;;;;2.60;2.40;;;;;;;;;;5079219;28;20270;-62
2023/01/23 00:11:12;;;;;;;2.40;2.20;;;;;;;;;;5051920;28;20202;-63
2023/01/23 00:13:40;;;;;;;2.40;2.20;;;;;;;;;;5057332;28;20287;-62
2023/01/23 00:16:08;;;;;;;2.70;2.50;;;;;;;;;;5056690;28;20201;-62
2023/01/23 00:18:35;;;;;;;2.30;2.10;;;;;;;;;;5044878;28;20527;-62
2023/01/23 00:21:05;;;;;;;2.30;2.10;;;;;;;;;;5040607;28;20601;-62
2023/01/23 00:23:35;;;;;;;2.42;2.22;;;;;;;;;;5038348;28;20194;-63
2023/01/23 00:26:04;;;;;;;2.30;2.10;;;;;;;;;;5046730;28;20628;-62
2023/01/23 00:28:31;;;;;;;2.63;2.28;;;;;;;;;;5058463;28;20208;-62
2023/01/23 00:31:06;;;;;;;2.75;2.55;;;;;;;;;;5043113;28;20590;-61
2023/01/23 00:33:34;;;;;;;2.47;2.28;;;;;;;;;;5039482;28;20224;-62
2023/01/23 00:36:02;;;;;;;2.47;2.10;;;;;;;;;;5038589;28;20233;-62
2023/01/23 00:38:29;;;;;;;2.50;2.30;;;;;;;;;;5056768;28;20586;-63
2023/01/23 00:40:58;;;;;;;2.17;1.98;;;;;;;;;;5039665;28;20202;-62
2023/01/23 00:43:26;;;;;;;2.25;2.13;;;;;;;;;;5056508;28;20205;-62
2023/01/23 00:45:54;;;;;;;2.60;2.40;;;;;;;;;;5058867;28;20547;-62
2023/01/23 00:48:22;;;;;;;2.42;2.22;;;;;;;;;;5041523;28;20224;-62
2023/01/23 00:50:49;;;;;;;2.47;2.28;;;;;;;;;;5050631;28;20202;-62
2023/01/23 00:53:17;;;;;;;2.30;2.10;;;;;;;;;;5049106;28;20252;-62
2023/01/23 00:55:45;;;;;;;2.20;2.00;;;;;;;;;;5044497;28;20201;-62
2023/01/23 00:58:14;;;;;;;2.30;2.10;;;;;;;;;;5054705;28;20288;-62
2023/01/23 01:00:42;;;;;;;2.60;2.40;;;;;;;;;;5043004;28;20221;-62
2023/01/23 01:03:10;;;;;;;2.38;2.17;;;;;;;;;;5075032;28;20266;-62
2023/01/23 01:05:37;;;;;;;2.50;2.30;;;;;;;;;;5098092;28;20235;-62
2023/01/23 01:08:05;;;;;;;2.47;2.28;;;;;;;;;;5098068;28;20199;-62
2023/01/23 01:10:33;;;;;;;2.20;2.10;;;;;;;;;;5098040;28;20215;-62
2023/01/23 01:13:02;;;;;;;2.35;2.15;;;;;;;;;;5097667;28;20589;-62
2023/01/23 01:15:32;;;;;;;2.65;2.45;;;;;;;;;;5098105;28;20199;-62
2023/01/23 01:17:59;;;;;;;2.40;2.20;;;;;;;;;;5097791;28;20210;-61
2023/01/23 01:20:28;;;;;;;2.63;2.42;;;;;;;;;;5098093;28;20557;-61
2023/01/23 01:22:56;;;;;;;2.50;2.30;;;;;;;;;;5097367;28;20203;-61
2023/01/23 01:25:23;;;;;;;2.50;2.30;;;;;;;;;;5098431;28;20211;-61
2023/01/23 01:27:51;;;;;;;2.70;2.50;;;;;;;;;;5097286;28;20307;-61
2023/01/23 01:30:19;;;;;;;2.70;2.50;;;;;;;;;;5097864;28;20265;-61
2023/01/23 01:32:49;;;;;;;3.03;2.83;;;;;;;;;;5097853;28;20211;-61
2023/01/23 01:35:17;;;;;;;3.00;2.80;;;;;;;;;;5096934;28;20207;-62
2023/01/23 01:37:45;;;;;;;2.67;2.47;;;;;;;;;;5097541;28;20207;-61
2023/01/23 01:40:14;;;;;;;2.63;2.42;;;;;;;;;;5097066;28;20200;-61
2023/01/23 01:42:43;;;;;;;2.60;2.40;;;;;;;;;;5097942;28;20203;-61
2023/01/23 01:45:25;;;;;;;2.67;2.47;;;;;;;;;;5097448;28;20282;-62
2023/01/23 01:47:54;;;;;;;2.55;2.35;;;;;;;;;;5096975;28;20210;-62
2023/01/23 01:50:22;;;;;;;2.75;2.55;;;;;;;;;;5097913;28;20211;-62
2023/01/23 01:52:50;;;;;;;3.30;3.03;;;;;;;;;;5097564;28;20219;-62
2023/01/23 01:55:18;;;;;;;3.17;2.88;;;;;;;;;;5098031;28;20208;-62
2023/01/23 01:57:47;;;;;;;2.67;2.47;;;;;;;;;;5097473;28;20200;-61
2023/01/23 02:00:16;;;;;;;2.92;2.72;;;;;;;;;;5097699;28;20486;-61
2023/01/23 02:02:46;;;;;;;2.70;2.50;;;;;;;;;;5092248;28;20232;-61
2023/01/23 02:05:16;;;;;;;2.90;2.70;;;;;;;;;;5077291;28;20697;-61
2023/01/23 02:07:47;;;;;;;2.90;2.70;;;;;;;;;;5077277;28;20231;-61
2023/01/23 02:10:15;;;;;;;2.50;2.30;;;;;;;;;;5072730;28;20208;-62
2023/01/23 02:12:46;;;;;;;3.20;2.90;;;;;;;;;;5050712;28;20198;-62
2023/01/23 02:15:14;;;;;;;2.90;2.70;;;;;;;;;;5036801;28;20558;-61
2023/01/23 02:17:42;;;;;;;2.95;2.75;;;;;;;;;;5038089;28;20513;-61
2023/01/23 02:20:13;;;;;;;2.90;2.70;;;;;;;;;;5038349;28;20237;-61
2023/01/23 02:22:46;;;;;;;2.95;2.75;;;;;;;;;;5037017;28;20201;-62
2023/01/23 02:25:18;;;;;;;3.17;2.95;;;;;;;;;;5043521;28;20264;-61
2023/01/23 02:27:47;;;;;;;3.17;2.88;;;;;;;;;;5036858;28;20202;-61
2023/01/23 02:30:17;;;;;;;3.20;2.90;;;;;;;;;;5052725;28;20540;-61
2023/01/23 02:32:44;;;;;;;3.15;2.85;;;;;;;;;;5053146;28;20280;-61
2023/01/23 02:35:16;;;;;;;3.25;2.97;;;;;;;;;;5038040;28;20642;-61
2023/01/23 02:37:47;;;;;;;3.28;2.97;;;;;;;;;;5036483;28;20209;-61
2023/01/23 02:40:14;;;;;;;3.38;3.08;;;;;;;;;;5036831;28;20597;-61
2023/01/23 02:42:45;;;;;;;2.90;2.70;;;;;;;;;;5040146;28;20205;-61
2023/01/23 02:45:14;;;;;;;2.90;2.70;;;;;;;;;;5044231;28;20197;-62
2023/01/23 02:47:41;;;;;;;3.30;3.00;;;;;;;;;;5057928;28;20201;-61
2023/01/23 02:50:10;;;;;;;3.15;2.95;;;;;;;;;;5060361;28;20208;-62
2023/01/23 02:52:37;;;;;;;2.97;2.78;;;;;;;;;;5056936;28;20645;-62
2023/01/23 02:55:06;;;;;;;3.50;3.20;;;;;;;;;;5040814;28;20221;-62
2023/01/23 02:57:33;;;;;;;3.17;2.97;;;;;;;;;;5040445;28;20549;-62
2023/01/23 03:00:15;;;;;;;3.35;3.05;;;;;;;;;;5043620;28;20196;-62
2023/01/23 03:02:46;;;;;;;3.13;2.83;;;;;;;;;;5070299;28;20231;-61
2023/01/23 03:05:13;;;;;;;3.20;3.00;;;;;;;;;;5100760;28;20481;-61
2023/01/23 03:07:41;;;;;;;3.40;3.10;;;;;;;;;;5100355;28;20204;-61
2023/01/23 03:10:10;;;;;;;3.00;2.80;;;;;;;;;;5100480;28;20261;-61
2023/01/23 03:12:42;;;;;;;3.45;3.15;;;;;;;;;;5100260;28;20290;-62
2023/01/23 03:15:10;;;;;;;3.22;2.92;;;;;;;;;;5099442;28;20223;-62
2023/01/23 03:17:37;;;;;;;3.30;3.00;;;;;;;;;;5099560;28;20196;-61
2023/01/23 03:20:07;;;;;;;3.13;2.90;;;;;;;;;;5100665;28;20222;-61
2023/01/23 03:22:35;;;;;;;3.60;3.30;;;;;;;;;;5099744;28;20258;-61
2023/01/23 03:25:03;;;;;;;3.05;2.85;;;;;;;;;;5100425;28;20282;-61
2023/01/23 03:27:31;;;;;;;3.42;3.13;;;;;;;;;;5100336;28;20564;-61
2023/01/23 03:30:14;;;;;;;3.50;3.20;;;;;;;;;;5100195;28;20203;-62
2023/01/23 03:32:42;;;;;;;3.20;2.90;;;;;;;;;;5099963;28;20200;-61
2023/01/23 03:35:15;;;;;;;4.05;3.72;;;;;;;;;;5099552;28;20310;-61
2023/01/23 03:37:43;;;;;;;3.47;3.17;;;;;;;;;;5099686;28;20576;-61
2023/01/23 03:43:01;;;;;;;3.40;3.10;;;;;;;;;;5099495;28;20190;-61
2023/01/23 03:45:28;;;;;;;3.35;3.05;;;;;;;;;;5099549;28;20199;-61
2023/01/23 03:47:56;;;;;;;3.53;3.22;;;;;;;;;;5099451;28;20200;-61
2023/01/23 03:50:26;;;;;;;3.47;3.17;;;;;;;;;;5099794;28;20288;-61
2023/01/23 03:52:53;;;;;;;3.28;2.97;;;;;;;;;;5099814;28;20204;-61
2023/01/23 03:55:21;;;;;;;3.50;3.20;;;;;;;;;;5099636;28;20281;-61
2023/01/23 03:57:49;;;;;;;3.92;3.53;;;;;;;;;;5099553;28;20285;-62
2023/01/23 04:00:17;;;;;;;3.50;3.20;;;;;;;;;;5098639;28;20191;-62
2023/01/23 04:02:45;;;;;;;3.47;3.17;;;;;;;;;;5099526;28;20236;-62
2023/01/23 04:05:12;;;;;;;3.67;3.38;;;;;;;;;;5099403;28;20294;-61
2023/01/23 04:07:41;;;;;;;3.78;3.47;;;;;;;;;;5099360;28;20223;-61
2023/01/23 04:10:10;;;;;;;3.78;3.47;;;;;;;;;;5099478;28;20253;-61
2023/01/23 04:12:37;;;;;;;3.50;3.20;;;;;;;;;;5098973;28;20290;-61
2023/01/23 04:15:05;;;;;;;3.40;3.10;;;;;;;;;;5098432;28;20216;-61
2023/01/23 04:17:33;;;;;;;3.72;3.40;;;;;;;;;;5098291;28;20196;-61
2023/01/23 04:20:01;;;;;;;3.90;3.60;;;;;;;;;;5098317;28;20199;-62
2023/01/23 04:22:28;;;;;;;3.50;3.20;;;;;;;;;;5097929;28;20260;-62
2023/01/23 04:24:57;;;;;;;3.65;3.35;;;;;;;;;;5098194;28;20228;-62
2023/01/23 04:27:25;;;;;;;3.72;3.42;;;;;;;;;;5098230;28;20235;-62
2023/01/23 04:29:53;;;;;;;3.75;3.45;;;;;;;;;;5098338;28;20203;-61
2023/01/23 04:32:21;;;;;;;3.80;3.50;;;;;;;;;;5098056;28;20234;-62
2023/01/23 04:34:48;;;;;;;3.70;3.40;;;;;;;;;;5097829;28;20251;-61
2023/01/23 04:37:16;;;;;;;3.60;3.30;;;;;;;;;;5097238;28;20260;-62
2023/01/23 04:39:44;;;;;;;3.50;3.20;;;;;;;;;;5097275;28;20195;-61
2023/01/23 04:42:13;;;;;;;3.55;3.25;;;;;;;;;;5086430;28;20539;-61
2023/01/23 04:44:41;;;;;;;3.80;3.50;;;;;;;;;;5097811;28;20661;-61
2023/01/23 04:47:09;;;;;;;3.75;3.45;;;;;;;;;;5096991;28;20295;-61
2023/01/23 04:49:37;;;;;;;3.80;3.40;;;;;;;;;;5097611;28;20268;-62
2023/01/23 04:52:06;;;;;;;3.92;3.53;;;;;;;;;;5097527;28;20196;-62
2023/01/23 04:54:34;;;;;;;3.85;3.55;;;;;;;;;;5097155;28;20335;-61
2023/01/23 04:57:01;;;;;;;3.70;3.40;;;;;;;;;;5097538;28;20210;-61
2023/01/23 04:59:30;;;;;;;3.75;3.45;;;;;;;;;;5097956;28;20203;-62
2023/01/23 05:01:58;;;;;;;4.20;3.90;;;;;;;;;;5097604;28;20742;-61
2023/01/23 05:04:25;;;;;;;3.78;3.47;;;;;;;;;;5097250;28;20314;-61
2023/01/23 05:06:53;;;;;;;3.60;3.30;;;;;;;;;;5097594;28;20200;-61
2023/01/23 05:09:20;;;;;;;3.80;3.50;;;;;;;;;;5098027;28;20635;-62
2023/01/23 05:11:48;;;;;;;3.80;3.50;;;;;;;;;;5097882;28;20556;-61
2023/01/23 05:14:15;;;;;;;4.07;3.67;;;;;;;;;;5096814;28;20314;-61
2023/01/23 05:16:44;;;;;;;3.90;3.60;;;;;;;;;;5097572;28;20587;-61
2023/01/23 05:19:11;;;;;;;3.90;3.60;;;;;;;;;;5096668;28;20295;-61
2023/01/23 05:21:39;;;;;;;3.90;3.50;;;;;;;;;;5096472;28;20206;-61
2023/01/23 05:24:06;;;;;;;4.22;3.83;;;;;;;;;;5097271;28;20231;-61
2023/01/23 05:26:34;;;;;;;4.10;3.75;;;;;;;;;;5096510;28;20291;-61
2023/01/23 05:29:02;;;;;;;4.13;3.72;;;;;;;;;;5096244;28;20203;-62
2023/01/23 05:31:29;;;;;;;3.80;3.50;;;;;;;;;;5096710;28;20196;-62
2023/01/23 05:33:58;;;;;;;3.97;3.63;;;;;;;;;;5096854;28;20345;-61
2023/01/23 05:36:25;;;;;;;4.03;3.72;;;;;;;;;;5095718;28;20294;-61
2023/01/23 05:38:53;;;;;;;3.90;3.60;;;;;;;;;;5094780;28;20196;-61
2023/01/23 05:41:20;;;;;;;3.92;3.53;;;;;;;;;;5095891;28;20282;-61
2023/01/23 05:43:48;;;;;;;4.43;4.03;;;;;;;;;;5096350;28;20288;-61
2023/01/23 05:46:16;;;;;;;4.13;3.75;;;;;;;;;;5096818;28;20219;-61
2023/01/23 05:48:43;;;;;;;4.22;3.83;;;;;;;;;;5095869;28;20235;-61
2023/01/23 05:51:12;;;;;;;3.78;3.40;;;;;;;;;;5095924;28;20294;-61
2023/01/23 05:53:39;;;;;;;4.10;3.70;;;;;;;;;;5094695;28;20679;-61
2023/01/23 05:56:07;;;;;;;3.80;3.50;;;;;;;;;;5095420;28;20239;-61
2023/01/23 05:58:35;;;;;;;4.25;3.85;;;;;;;;;;5094885;28;20452;-61
2023/01/23 06:01:03;;;;;;;4.35;3.95;;;;;;;;;;5095378;28;20790;-62
2023/01/23 06:03:30;;;;;;;4.32;3.92;;;;;;;;;;5094182;28;20235;-61
2023/01/23 06:05:57;;;;;;;4.50;4.10;;;;;;;;;;5094329;28;20651;-61
2023/01/23 06:08:26;;;;;;;4.20;3.80;;;;;;;;;;5094139;28;20282;-61
2023/01/23 06:10:57;;;;;;;4.72;4.32;;;;;;;;;;5094058;28;20214;-61
2023/01/23 06:13:25;;;;;;;4.15;3.78;;;;;;;;;;5093585;28;20502;-61
2023/01/23 06:15:52;;;;;;;4.28;3.88;;;;;;;;;;5094408;28;20227;-62
2023/01/23 06:18:20;;;;;;;4.03;3.70;;;;;;;;;;5094141;28;20290;-62
2023/01/23 06:20:47;;;;;;;4.53;4.13;;;;;;;;;;5077312;28;20254;-61
2023/01/23 06:23:15;;;;;;;3.90;3.60;;;;;;;;;;5093658;28;20214;-61
2023/01/23 06:25:43;;;;;;;4.40;4.00;;;;;;;;;;5093580;28;20286;-61
2023/01/23 06:28:11;;;;;;;4.43;4.03;;;;;;;;;;5094424;28;20298;-61
2023/01/23 06:30:38;;;;;;;4.15;3.83;;;;;;;;;;5094971;28;20196;-62
2023/01/23 06:33:06;;;;;;;4.15;3.75;;;;;;;;;;5094295;28;20210;-61
2023/01/23 06:35:33;;;;;;;4.65;4.25;;;;;;;;;;5094777;28;20323;-62
2023/01/23 06:38:00;;;;;;;3.90;3.60;;;;;;;;;;5093015;28;20227;-61
2023/01/23 06:40:28;;;;;;;4.35;3.97;;;;;;;;;;5094127;28;20286;-62
2023/01/23 06:42:57;;;;;;;4.07;3.78;;;;;;;;;;5094300;28;20196;-62
2023/01/23 06:45:24;;;;;;;4.80;4.30;;;;;;;;;;5093986;28;20202;-62
2023/01/23 06:47:52;;;;;;;4.82;4.32;;;;;;;;;;5094086;28;20700;-61
2023/01/23 06:50:19;;;;;;;4.05;3.65;;;;;;;;;;5094160;28;20279;-61
2023/01/23 06:52:47;;;;;;;5.15;4.63;;;;;;;;;;5094553;28;20214;-61
2023/01/23 06:55:14;;;;;;;4.40;3.88;;;;;;;;;;5094866;28;20645;-61
2023/01/23 06:57:42;;;;;;;5.05;4.05;;;;;;;;;;5093409;28;20279;-61
2023/01/23 07:00:11;;;;;;;4.68;4.20;;;;;;;;;;5094010;28;20298;-61
2023/01/23 07:02:39;;;;;;;4.50;4.10;;;;;;;;;;5093889;28;20231;-62
2023/01/23 07:05:06;;;;;;;4.30;3.90;;;;;;;;;;5094012;28;20712;-62
2023/01/23 07:07:34;;;;;;;4.05;3.65;;;;;;;;;;5094562;28;20231;-62
2023/01/23 07:10:01;;;;;;;5.57;4.00;;;;;;;;;;5094075;28;20286;-61
2023/01/23 07:12:29;;;;;;;4.25;3.85;;;;;;;;;;5093805;28;20203;-61
2023/01/23 07:14:56;;;;;;;4.30;3.80;;;;;;;;;;5093256;28;20699;-61
2023/01/23 07:17:25;;;;;;;4.60;4.05;;;;;;;;;;5093865;28;20641;-62
2023/01/23 07:19:53;;;;;;;4.45;4.05;;;;;;;;;;5094178;28;20349;-61
2023/01/23 07:22:20;;;;;;;4.30;3.90;;;;;;;;;;5094030;28;20271;-62
2023/01/23 07:24:49;;;;;;;4.63;4.03;;;;;;;;;;5094205;28;20291;-62
2023/01/23 07:27:16;;;;;;;4.65;4.22;;;;;;;;;;5094986;28;20200;-61
2023/01/23 07:29:44;;;;;;;4.45;4.05;;;;;;;;;;5094493;28;20701;-61
2023/01/23 07:32:11;;;;;;;4.70;4.30;;;;;;;;;;5094873;28;20286;-61
2023/01/23 07:34:40;;;;;;;4.47;4.07;;;;;;;;;;5095975;28;20195;-61
2023/01/23 07:37:07;;;;;;;4.53;4.13;;;;;;;;;;5098517;28;20299;-61
2023/01/23 07:39:35;;;;;;;4.97;4.22;;;;;;;;;;5081969;28;20210;-61
2023/01/23 07:42:02;;;;;;;4.90;4.35;;;;;;;;;;5098195;28;20279;-61
2023/01/23 07:44:30;;;;;;;5.10;4.50;;;;;;;;;;5097874;28;20317;-61
2023/01/23 07:46:57;;;;;;;6.05;4.70;;;;;;;;;;5097456;28;20246;-61
2023/01/23 07:49:25;;;;;;;4.72;4.20;;;;;;;;;;5097640;28;20277;-61
2023/01/23 07:51:53;;;;;;;4.90;4.35;;;;;;;;;;5097487;28;20302;-61
2023/01/23 07:54:21;;;;;;;4.72;4.22;;;;;;;;;;5097179;28;20342;-62
2023/01/23 07:56:50;;;;;;;4.78;4.28;;;;;;;;;;5096973;28;20251;-61
2023/01/23 07:59:17;;;;;;;4.65;4.25;;;;;;;;;;5097462;28;20507;-62
2023/01/23 08:01:44;;;;;;;4.32;3.92;;;;;;;;;;5096923;28;20600;-61
2023/01/23 08:04:12;;;;;;;4.82;4.30;;;;;;;;;;5096864;28;20310;-61
2023/01/23 08:06:39;;;;;;;4.57;4.18;;;;;;;;;;5096451;28;20278;-61
2023/01/23 08:09:08;;;;;;;5.68;4.60;;;;;;;;;;5096219;28;20647;-62
2023/01/23 08:11:36;;;;;;;6.18;4.70;;;;;;;;;;5097465;28;20291;-61
2023/01/23 08:14:03;;;;;;;5.50;4.72;;;;;;;;;;5097741;28;20210;-61
2023/01/23 08:16:30;;;;;;;6.95;4.55;;;;;;;;;;5095920;28;20231;-61
2023/01/23 08:18:58;;;;;;;6.13;4.57;;;;;;;;;;5096230;28;20235;-61
2023/01/23 08:21:25;;;;;;;4.72;4.30;;;;;;;;;;5097148;28;20303;-61
2023/01/23 08:23:53;;;;;;;4.75;4.25;;;;;;;;;;5096940;28;20520;-61
2023/01/23 08:26:22;;;;;;;5.43;4.53;;;;;;;;;;5096857;28;20286;-61
2023/01/23 08:28:49;;;;;;;4.63;4.07;;;;;;;;;;5096416;28;20295;-61
2023/01/23 08:31:16;;;;;;;4.97;4.47;;;;;;;;;;5096672;28;20278;-61
2023/01/23 08:33:44;;;;;;;5.90;4.90;;;;;;;;;;5096089;28;20206;-61
2023/01/23 08:36:13;;;;;;;4.90;4.40;;;;;;;;;;5096532;28;20314;-61
2023/01/23 08:38:40;;;;;;;5.55;4.28;;;;;;;;;;5096183;28;20290;-61
2023/01/23 08:41:08;;;;;;;5.13;4.63;;;;;;;;;;5095980;28;20202;-61
2023/01/23 08:43:37;;;;;;;5.93;4.50;;;;;;;;;;5095938;28;20227;-61
2023/01/23 08:46:05;;;;;;;6.10;4.70;;;;;;;;;;5095011;28;20192;-61
2023/01/23 08:48:33;;;;;;;4.90;4.30;;;;;;;;;;5095770;28;20203;-61
2023/01/23 08:51:01;;;;;;;5.53;4.55;;;;;;;;;;5096529;28;20298;-61
2023/01/23 08:53:28;;;;;;;5.03;4.43;;;;;;;;;;5095980;28;20200;-61
2023/01/23 08:55:59;;;;;;;6.40;4.97;;;;;;;;;;5095353;28;20216;-61
2023/01/23 08:58:27;;;;;;;5.28;4.78;;;;;;;;;;5088536;28;20199;-61
2023/01/23 09:00:56;;;;;;;4.65;4.20;;;;;;;;;;5095348;28;20191;-61
2023/01/23 09:03:23;;;;;;;5.15;4.50;;;;;;;;;;5095629;28;20227;-61
2023/01/23 09:05:50;;;;;;;5.20;4.53;;;;;;;;;;5094814;28;20221;-61
2023/01/23 09:08:18;;;;;;;4.85;4.45;;;;;;;;;;5096539;28;20195;-62
2023/01/23 09:10:45;;;;;;;5.78;4.50;;;;;;;;;;5095533;28;20749;-62
2023/01/23 09:13:13;;;;;;;4.43;4.03;;;;;;;;;;5095853;28;20196;-62
2023/01/23 09:15:40;;;;;;;8.32;4.75;;;;;;;;;;5095826;28;20698;-62
2023/01/23 09:18:09;;;;;;;5.20;4.70;;;;;;;;;;5095335;28;20314;-61
2023/01/23 09:20:38;;;;;;;6.55;4.75;;;;;;;;;;5093551;28;20195;-61
2023/01/23 09:23:05;;;;;;;7.03;4.90;;;;;;;;;;5092419;28;20286;-61
2023/01/23 09:25:32;;;;;;;5.47;4.72;;;;;;;;;;5094708;28;20198;-61
2023/01/23 09:28:00;;;;;;;6.30;4.43;;;;;;;;;;5095045;28;20294;-61
2023/01/23 09:30:29;;;;;;;5.20;4.57;;;;;;;;;;5094559;28;20192;-61
2023/01/23 09:32:56;;;;;;;6.07;5.13;;;;;;;;;;5095404;28;20210;-61
2023/01/23 09:35:27;;;;;;;5.93;4.80;;;;;;;;;;5094316;28;20222;-61
2023/01/23 09:38:01;;;;;;;5.70;4.70;;;;;;;;;;5094974;28;20199;-61
2023/01/23 09:40:30;;;;;;;5.28;4.70;;;;;;;;;;5094568;28;20195;-62
2023/01/23 09:42:59;;;;;;;5.63;5.03;;;;;;;;;;5095870;28;20586;-62
2023/01/23 09:45:28;;;;;;;4.93;4.30;;;;;;;;;;5096137;28;20204;-62
2023/01/23 09:47:59;;;;;;;5.43;4.70;;;;;;;;;;5094962;28;20238;-62
2023/01/23 09:50:30;;;;;;;5.28;4.78;;;;;;;;;;5095222;28;20299;-62
2023/01/23 09:53:00;;;;;;;6.57;5.05;;;;;;;;;;5095364;28;20211;-61
2023/01/23 09:55:34;;;;;;;6.28;5.10;;;;;;;;;;5094754;28;20246;-61
2023/01/23 09:58:02;;;;;;;5.90;4.72;;;;;;;;;;5095004;28;20463;-61
2023/01/23 10:00:31;;;;;;;6.75;4.93;;;;;;;;;;5095513;28;20200;-61
2023/01/23 10:02:59;;;;;;;6.13;4.70;;;;;;;;;;5095327;28;20658;-61
2023/01/23 10:05:29;;;;;;;5.00;4.50;;;;;;;;;;5095620;28;20305;-61
2023/01/23 10:08:03;;;;;;;5.22;4.60;;;;;;;;;;5094688;28;20208;-61
2023/01/23 10:10:41;;;;;;;5.50;5.00;;;;;;;;;;5095752;28;20199;-61
2023/01/23 10:13:11;;;;;;;6.18;4.90;;;;;;;;;;5095882;28;20204;-62
2023/01/23 10:15:46;;;;;;;6.05;5.40;;;;;;;;;;5095244;28;20302;-62
2023/01/23 10:18:20;;;;;;;4.65;4.25;;;;;;;;;;5094518;28;20209;-61
2023/01/23 10:20:51;;;;;;;6.20;5.28;;;;;;;;;;5094525;28;20261;-61
2023/01/23 10:23:30;;;;;;;5.47;4.82;;;;;;;;;;5094531;28;20294;-62
2023/01/23 10:25:59;;;;;;;4.72;4.25;;;;;;;;;;5095304;28;20294;-62
2023/01/23 10:28:30;;;;;;;5.22;4.63;;;;;;;;;;5095154;28;20282;-62
2023/01/23 10:30:59;;;;;;;4.90;4.40;;;;;;;;;;5094810;28;20214;-61
2023/01/23 10:33:31;;;;;;;5.43;4.68;;;;;;;;;;5094681;28;20196;-61
2023/01/23 10:36:02;;;;;;;5.22;4.72;;;;;;;;;;5094583;28;20219;-61
2023/01/23 10:38:34;;;;;;;5.45;4.88;;;;;;;;;;5093849;28;20306;-61
2023/01/23 10:41:16;;;;;;;5.13;4.63;;;;;;;;;;5094455;28;20192;-61
2023/01/23 10:43:45;;;;;;;5.20;4.70;;;;;;;;;;5092987;28;20546;-61
2023/01/23 10:46:14;;;;;;;5.43;4.72;;;;;;;;;;5094595;28;20222;-62
2023/01/23 10:48:45;;;;;;;5.07;4.57;;;;;;;;;;5094155;28;20200;-62
2023/01/23 10:51:40;;;;;;;5.00;4.47;;;;;;;;;;5094539;28;20286;-62
2023/01/23 10:54:11;;;;;;;5.25;4.75;;;;;;;;;;5046840;28;20290;-62
2023/01/23 10:56:46;;;;;;;5.30;4.80;;;;;;;;;;5094170;28;20223;-61
2023/01/23 10:59:19;;;;;;;5.20;4.70;;;;;;;;;;5094523;28;20203;-61
2023/01/23 11:01:55;;;;;;;5.20;4.70;;;;;;;;;;5094139;28;20199;-62
2023/01/23 11:04:25;;;;;;;5.18;4.68;;;;;;;;;;5093964;28;20227;-62
2023/01/23 11:07:02;;;;;;;5.20;4.70;;;;;;;;;;5093553;28;20192;-62
2023/01/23 11:09:31;;;;;;;5.57;4.95;;;;;;;;;;5096734;28;20278;-62
2023/01/23 11:12:03;;;;;;;5.03;4.53;;;;;;;;;;5097394;28;20298;-62
2023/01/23 11:14:30;;;;;;;5.75;5.10;;;;;;;;;;5097684;28;20195;-62
2023/01/23 11:17:05;;;;;;;5.20;4.70;;;;;;;;;;5097059;28;20308;-62
2023/01/23 11:19:33;;;;;;;5.95;4.90;;;;;;;;;;5096678;28;20211;-62
2023/01/23 11:22:02;;;;;;;4.78;4.32;;;;;;;;;;5096142;28;20663;-61
2023/01/23 11:24:34;;;;;;;4.75;4.25;;;;;;;;;;5097524;28;20220;-62
2023/01/23 11:27:03;;;;;;;5.30;4.80;;;;;;;;;;5097767;28;20199;-62
2023/01/23 11:29:31;;;;;;;5.93;5.38;;;;;;;;;;5097593;28;20210;-61
2023/01/23 11:31:59;;;;;;;5.53;5.03;;;;;;;;;;5096759;28;20294;-61
2023/01/23 11:34:31;;;;;;;5.25;4.72;;;;;;;;;;5097094;28;20206;-61
2023/01/23 11:37:03;;;;;;;5.40;4.90;;;;;;;;;;5095575;28;20219;-61
2023/01/23 11:39:45;;;;;;;5.40;4.78;;;;;;;;;;5095986;28;20194;-62
2023/01/23 11:42:12;;;;;;;5.57;5.07;;;;;;;;;;5096800;28;20294;-61
2023/01/23 11:44:41;;;;;;;5.50;5.00;;;;;;;;;;5097169;28;20206;-61
2023/01/23 11:47:26;;;;;;;5.03;4.53;;;;;;;;;;5096921;28;20192;-61
2023/01/23 11:50:04;;;;;;;5.20;4.70;;;;;;;;;;5096321;28;20286;-62
2023/01/23 11:52:42;;;;;;;5.40;4.78;;;;;;;;;;5097288;28;20215;-61
2023/01/23 11:55:18;;;;;;;5.78;4.85;;;;;;;;;;5096564;28;20207;-61
2023/01/23 11:57:52;;;;;;;5.25;4.75;;;;;;;;;;5096570;28;20306;-61
2023/01/23 12:00:23;;;;;;;5.32;4.82;;;;;;;;;;5096755;28;20202;-61
2023/01/23 12:03:06;;;;;;;5.00;4.47;;;;;;;;;;5096022;28;20322;-62
2023/01/23 12:05:47;;;;;;;5.50;4.82;;;;;;;;;;5096953;28;20210;-62
2023/01/23 12:08:20;;;;;;;5.13;4.63;;;;;;;;;;5096602;28;20290;-62
2023/01/23 12:10:54;;;;;;;5.47;4.97;;;;;;;;;;5096333;28;20208;-62
2023/01/23 12:13:30;;;;;;;4.97;4.50;;;;;;;;;;5097194;28;20546;-62
2023/01/23 12:16:04;;;;;;;4.85;4.35;;;;;;;;;;5096904;28;20261;-62
2023/01/23 12:18:37;;;;;;;5.78;4.70;;;;;;;;;;5096647;28;20315;-61
2023/01/23 12:21:09;;;;;;;5.47;4.90;;;;;;;;;;5095080;28;20203;-61
2023/01/23 12:23:48;;;;;;;5.82;5.13;;;;;;;;;;5096162;28;20286;-62
2023/01/23 12:26:19;;;;;;;5.18;4.63;;;;;;;;;;5096285;28;20242;-62
2023/01/23 12:29:01;;;;;;;5.10;4.60;;;;;;;;;;5095577;28;20279;-62
2023/01/23 12:31:39;;;;;;;5.60;4.97;;;;;;;;;;5096098;28;20498;-62
2023/01/23 12:34:13;;;;;;;5.53;4.90;;;;;;;;;;5095182;28;20196;-62
2023/01/23 12:36:56;;;;;;;5.50;5.00;;;;;;;;;;5095408;28;20219;-61
2023/01/23 12:39:31;;;;;;;5.63;4.78;;;;;;;;;;5093566;28;20229;-61
2023/01/23 12:42:03;;;;;;;5.50;4.75;;;;;;;;;;5095045;28;20203;-61
2023/01/23 12:44:33;;;;;;;5.05;4.45;;;;;;;;;;5094975;28;20191;-61
2023/01/23 12:47:03;;;;;;;5.75;5.15;;;;;;;;;;5095754;28;20192;-61
2023/01/23 12:49:35;;;;;;;4.97;4.47;;;;;;;;;;5095205;28;20673;-62
2023/01/23 12:52:03;;;;;;;5.10;4.63;;;;;;;;;;5095841;28;20196;-61
2023/01/23 12:54:35;;;;;;;6.25;5.13;;;;;;;;;;5094952;28;20234;-61
2023/01/23 12:57:05;;;;;;;5.68;5.07;;;;;;;;;;5094494;28;20219;-61
2023/01/23 12:59:37;;;;;;;5.47;4.97;;;;;;;;;;5094590;28;20294;-62
2023/01/23 13:02:08;;;;;;;5.30;4.80;;;;;;;;;;5095255;28;20196;-62
2023/01/23 13:04:43;;;;;;;5.22;4.72;;;;;;;;;;5095085;28;20204;-62
2023/01/23 13:07:17;;;;;;;5.28;4.78;;;;;;;;;;5095630;28;20281;-62
2023/01/23 13:09:50;;;;;;;5.72;5.13;;;;;;;;;;5087407;28;20202;-62
2023/01/23 13:12:21;;;;;;;5.10;4.60;;;;;;;;;;5095502;28;20305;-61
2023/01/23 13:14:49;;;;;;;5.15;4.68;;;;;;;;;;5095247;28;20302;-61
2023/01/23 13:17:31;;;;;;;5.40;4.90;;;;;;;;;;5094630;28;20226;-62
2023/01/23 13:23:17;;;;;;;5.28;4.78;;;;;;;;;;5095284;28;20182;-61
2023/01/23 13:25:45;;;;;;;5.28;4.78;;;;;;;;;;5094277;28;20260;-61
2023/01/23 13:31:05;;;;;;;5.25;4.75;;;;;;;;;;5150716;27;20270;-61
2023/01/23 13:33:53;;;;;;;6.00;5.40;;;;;;;;;;5131990;28;20298;-63
2023/01/23 13:36:31;;;;;;;5.80;5.20;;;;;;;;;;5132381;28;20220;-62
2023/01/23 13:39:03;;;;;;;5.57;5.07;;;;;;;;;;5132037;28;20194;-62
2023/01/23 13:41:31;;;;;;;5.50;4.97;;;;;;;;;;5131431;28;20186;-62
2023/01/23 13:44:06;;;;;;;5.20;4.70;;;;;;;;;;5131180;28;20285;-61
2023/01/23 13:46:43;;;;;;;5.57;5.07;;;;;;;;;;5131285;28;20285;-62
2023/01/23 13:56:37;;;;;;;5.28;4.78;;;;;;;;;;5132685;28;20271;-61
2023/01/23 14:00:39;;;;;;;6.03;5.43;;;;;;;;;;5132236;28;20235;-62
2023/01/23 14:06:06;;;;;;;5.60;5.03;;;;;;;;;;5131787;28;20590;-62
2023/01/23 14:08:34;;;;;;;5.65;4.95;;;;;;;;;;5131770;28;20194;-62
2023/01/23 14:11:02;;;;;;;5.53;5.03;;;;;;;;;;5130708;28;20224;-62
2023/01/23 14:13:30;;;;;;;5.60;5.10;;;;;;;;;;5130996;28;20199;-62
2023/01/23 14:16:09;;;;;;;5.60;5.10;;;;;;;;;;5131094;28;20297;-62
2023/01/23 14:18:40;;;;;;;5.63;5.10;;;;;;;;;;5131315;28;20204;-62
2023/01/23 14:21:16;;;;;;;5.40;4.90;;;;;;;;;;5130646;28;20281;-62
2023/01/23 14:23:45;;;;;;;5.25;4.72;;;;;;;;;;5130486;28;20200;-62
2023/01/23 14:26:15;;;;;;;5.90;5.30;;;;;;;;;;5132079;28;20602;-62
2023/01/23 14:28:51;;;;;;;5.68;4.97;;;;;;;;;;5128357;27;20198;-62
2023/01/23 14:31:22;;;;;;;5.85;5.25;;;;;;;;;;5124521;28;20291;-62
2023/01/23 14:33:51;;;;;;;5.38;4.88;;;;;;;;;;5130619;28;20285;-62
2023/01/23 14:36:20;;;;;;;5.72;5.13;;;;;;;;;;5130741;28;20274;-62
2023/01/23 14:38:49;;;;;;;6.13;5.07;;;;;;;;;;5130879;28;20198;-61
2023/01/23 14:41:17;;;;;;;5.25;4.75;;;;;;;;;;5122870;28;20224;-62
2023/01/23 14:43:44;;;;;;;6.20;5.57;;;;;;;;;;5116879;28;20530;-62
2023/01/23 14:46:15;;;;;;;5.40;4.90;;;;;;;;;;5116658;28;20256;-62
2023/01/23 14:48:43;;;;;;;5.70;5.10;;;;;;;;;;5117002;28;20195;-61
2023/01/23 14:51:18;;;;;;;5.43;4.93;;;;;;;;;;5117354;28;20225;-62
2023/01/23 14:53:51;;;;;;;5.50;4.90;;;;;;;;;;5117235;28;20289;-63
2023/01/23 14:56:18;;;;;;;5.47;4.88;;;;;;;;;;5117229;28;20291;-62
2023/01/23 14:58:46;;;;;;;5.32;4.82;;;;;;;;;;5115784;28;20285;-62
2023/01/23 15:01:14;;;;;;;5.60;5.00;;;;;;;;;;5116857;28;20590;-62
2023/01/23 15:03:42;;;;;;;5.20;4.70;;;;;;;;;;5117554;28;20195;-61
2023/01/23 15:06:14;;;;;;;5.57;4.90;;;;;;;;;;5117764;28;20306;-62
2023/01/23 15:08:43;;;;;;;5.45;4.90;;;;;;;;;;5115946;28;20286;-62
2023/01/23 15:11:12;;;;;;;5.88;5.25;;;;;;;;;;5116586;28;20223;-61
2023/01/23 15:13:49;;;;;;;5.80;5.20;;;;;;;;;;5116601;28;20293;-61
2023/01/23 15:16:18;;;;;;;5.45;4.95;;;;;;;;;;5117579;28;20210;-61
2023/01/23 15:18:56;;;;;;;5.57;5.07;;;;;;;;;;5116443;28;20206;-62